createdAt,value
2022-10-06T00:01:09.772Z,100.00
2022-10-06T00:03:12.912Z,100.00
2022-10-06T00:05:16.162Z,100.00
2022-10-06T00:07:19.061Z,100.00
2022-10-06T00:09:22.878Z,100.00
2022-10-06T00:11:25.837Z,100.00
2022-10-06T00:13:31.577Z,100.00
2022-10-06T00:15:34.958Z,100.00
2022-10-06T00:17:39.901Z,100.00
2022-10-06T00:19:43.020Z,100.00
2022-10-06T00:21:50.008Z,100.00
2022-10-06T00:23:54.967Z,100.00
2022-10-06T00:25:58.406Z,100.00
2022-10-06T00:28:01.424Z,100.00
2022-10-06T00:30:04.729Z,100.00
2022-10-06T00:32:07.681Z,100.00
2022-10-06T00:34:11.978Z,100.00
2022-10-06T00:36:14.844Z,100.00
2022-10-06T00:38:18.589Z,100.00
2022-10-06T00:40:23.423Z,100.00
2022-10-06T00:42:28.442Z,100.00
2022-10-06T00:44:32.457Z,100.00
2022-10-06T00:46:38.311Z,100.00
2022-10-06T00:48:42.911Z,100.00
2022-10-06T00:50:47.818Z,100.00
2022-10-06T00:52:50.743Z,100.00
2022-10-06T00:54:53.694Z,100.00
2022-10-06T00:56:59.312Z,100.00
2022-10-06T00:59:02.270Z,100.00
2022-10-06T01:01:09.980Z,100.00
2022-10-06T01:03:18.038Z,100.00
2022-10-06T01:05:28.578Z,100.00
2022-10-06T01:07:33.669Z,100.00
2022-10-06T01:09:36.829Z,100.00
2022-10-06T01:11:41.046Z,100.00
2022-10-06T01:13:45.436Z,100.00
2022-10-06T01:15:51.681Z,100.00
2022-10-06T01:17:56.828Z,100.00
2022-10-06T01:20:01.601Z,100.00
2022-10-06T01:22:06.529Z,100.00
2022-10-06T01:24:13.934Z,100.00
2022-10-06T01:26:18.427Z,100.00
2022-10-06T01:28:21.769Z,100.00
2022-10-06T01:30:28.069Z,100.00
2022-10-06T01:32:36.648Z,100.00
2022-10-06T01:34:40.731Z,100.00
2022-10-06T01:36:43.675Z,100.00
2022-10-06T01:38:46.642Z,100.00
2022-10-06T01:40:51.571Z,100.00
2022-10-06T01:42:54.485Z,100.00
2022-10-06T01:44:57.577Z,100.00
2022-10-06T01:47:00.426Z,100.00
2022-10-06T01:49:03.569Z,100.00
2022-10-06T01:51:09.049Z,100.00
2022-10-06T01:53:14.064Z,100.00
2022-10-06T01:55:17.307Z,100.00
2022-10-06T01:57:22.720Z,100.00
2022-10-06T01:59:26.015Z,100.00
2022-10-06T02:01:29.240Z,100.00
2022-10-06T02:03:32.216Z,100.00
2022-10-06T02:05:35.174Z,100.00
2022-10-06T02:07:38.924Z,100.00
2022-10-06T02:09:43.097Z,100.00
2022-10-06T02:11:46.266Z,100.00
2022-10-06T02:13:50.933Z,100.00
2022-10-06T02:15:57.411Z,100.00
2022-10-06T02:18:00.653Z,100.00
2022-10-06T02:20:03.552Z,100.00
2022-10-06T02:22:06.501Z,100.00
2022-10-06T02:24:09.684Z,100.00
2022-10-06T02:26:14.391Z,100.00
2022-10-06T02:28:17.492Z,100.00
2022-10-06T02:30:21.998Z,100.00
2022-10-06T02:32:25.049Z,100.00
2022-10-06T02:34:28.147Z,100.00
2022-10-06T02:36:31.357Z,100.00
2022-10-06T02:38:35.144Z,100.00
2022-10-06T02:40:42.293Z,100.00
2022-10-06T02:42:45.476Z,100.00
2022-10-06T02:44:51.712Z,100.00
2022-10-06T02:46:56.270Z,100.00
2022-10-06T02:48:59.483Z,100.00
2022-10-06T02:51:06.948Z,100.00
2022-10-06T02:53:09.969Z,100.00
2022-10-06T02:55:13.271Z,100.00
2022-10-06T02:57:16.409Z,100.00
2022-10-06T02:59:19.257Z,100.00
2022-10-06T03:01:25.540Z,100.00
2022-10-06T03:03:32.207Z,100.00
2022-10-06T03:05:35.067Z,100.00
2022-10-06T03:07:37.997Z,100.00
2022-10-06T03:09:40.998Z,100.00
2022-10-06T03:11:45.021Z,100.00
2022-10-06T03:13:53.250Z,100.00
2022-10-06T03:15:56.177Z,100.00
2022-10-06T03:17:59.315Z,100.00
2022-10-06T03:20:03.984Z,100.00
2022-10-06T03:22:08.182Z,100.00
2022-10-06T03:24:18.130Z,100.00
2022-10-06T03:26:27.844Z,100.00
2022-10-06T03:28:31.322Z,100.00
2022-10-06T03:30:36.178Z,100.00
2022-10-06T03:32:39.546Z,100.00
2022-10-06T03:34:46.803Z,100.00
2022-10-06T03:36:52.753Z,100.00
2022-10-06T03:38:57.060Z,100.00
2022-10-06T03:41:11.986Z,100.00
2022-10-06T03:43:15.111Z,100.00
2022-10-06T03:45:18.055Z,100.00
2022-10-06T03:47:20.950Z,100.00
2022-10-06T03:49:23.842Z,100.00
2022-10-06T03:51:29.981Z,100.00
2022-10-06T03:53:35.364Z,100.00
2022-10-06T03:55:39.796Z,100.00
2022-10-06T03:57:42.868Z,100.00
2022-10-06T03:59:45.794Z,100.00
2022-10-06T04:01:49.609Z,100.00
2022-10-06T04:04:03.262Z,100.00
2022-10-06T04:06:12.086Z,100.00
2022-10-06T04:08:15.609Z,100.00
2022-10-06T04:10:19.986Z,100.00
2022-10-06T04:12:26.479Z,100.00
2022-10-06T04:14:29.705Z,100.00
2022-10-06T04:16:34.270Z,100.00
2022-10-06T04:18:38.172Z,100.00
2022-10-06T04:20:41.397Z,100.00
2022-10-06T04:22:44.319Z,100.00
2022-10-06T04:24:48.998Z,100.00
2022-10-06T04:26:53.336Z,100.00
2022-10-06T04:28:58.116Z,100.00
2022-10-06T04:31:04.089Z,100.00
2022-10-06T04:33:07.411Z,100.00
2022-10-06T04:35:11.024Z,100.00
2022-10-06T04:37:14.312Z,100.00
2022-10-06T04:39:18.418Z,100.00
2022-10-06T04:41:23.085Z,100.00
2022-10-06T04:43:28.000Z,100.00
2022-10-06T04:45:31.283Z,100.00
2022-10-06T04:47:34.611Z,100.00
2022-10-06T04:49:38.105Z,100.00
2022-10-06T04:51:41.516Z,100.00
2022-10-06T04:53:45.291Z,100.00
2022-10-06T04:55:49.901Z,100.00
2022-10-06T04:57:52.947Z,100.00
2022-10-06T05:00:15.208Z,100.00
2022-10-06T05:02:21.332Z,100.00
2022-10-06T05:04:28.308Z,100.00
2022-10-06T05:06:33.102Z,100.00
2022-10-06T05:08:36.778Z,100.00
2022-10-06T05:10:41.920Z,100.00
2022-10-06T05:12:45.198Z,100.00
2022-10-06T05:14:48.796Z,100.00
2022-10-06T05:16:54.374Z,100.00
2022-10-06T05:18:57.599Z,100.00
2022-10-06T05:21:06.782Z,100.00
2022-10-06T05:23:10.400Z,100.00
2022-10-06T05:25:13.353Z,100.00
2022-10-06T05:27:16.274Z,100.00
2022-10-06T05:29:19.550Z,100.00
2022-10-06T05:31:28.734Z,100.00
2022-10-06T05:33:34.812Z,100.00
2022-10-06T05:35:38.236Z,100.00
2022-10-06T05:37:42.444Z,100.00
2022-10-06T05:39:46.696Z,100.00
2022-10-06T05:41:49.997Z,100.00
2022-10-06T05:43:53.617Z,100.00
2022-10-06T05:45:57.343Z,100.00
2022-10-06T05:48:00.519Z,100.00
2022-10-06T05:50:05.502Z,100.00
2022-10-06T05:52:08.432Z,100.00
2022-10-06T05:54:14.235Z,100.00
2022-10-06T05:56:18.831Z,100.00
2022-10-06T05:58:21.736Z,100.00
2022-10-06T06:00:24.737Z,100.00
2022-10-06T06:02:27.738Z,100.00
2022-10-06T06:04:33.049Z,100.00
2022-10-06T06:06:40.667Z,100.00
2022-10-06T06:08:47.549Z,100.00
2022-10-06T06:10:51.035Z,100.00
2022-10-06T06:12:54.005Z,100.00
2022-10-06T06:15:30.295Z,100.00
2022-10-06T06:17:37.320Z,100.00
2022-10-06T06:19:41.626Z,100.00
2022-10-06T06:21:51.450Z,100.00
2022-10-06T06:23:54.864Z,100.00
2022-10-06T06:26:02.488Z,100.00
2022-10-06T06:28:09.342Z,100.00
2022-10-06T06:30:13.382Z,100.00
2022-10-06T06:32:17.016Z,100.00
2022-10-06T06:34:20.911Z,100.00
2022-10-06T06:36:25.721Z,100.00
2022-10-06T06:38:31.327Z,100.00
2022-10-06T06:40:34.742Z,100.00
2022-10-06T06:42:37.828Z,100.00
2022-10-06T06:45:09.306Z,100.00
2022-10-06T06:47:19.869Z,100.00
2022-10-06T06:49:24.051Z,100.00
2022-10-06T06:51:33.348Z,100.00
2022-10-06T06:53:39.676Z,100.00
2022-10-06T06:55:51.055Z,100.00
2022-10-06T06:57:55.738Z,100.00
2022-10-06T07:00:02.538Z,100.00
2022-10-06T07:02:07.130Z,100.00
2022-10-06T07:04:15.318Z,100.00
2022-10-06T07:06:18.771Z,100.00
2022-10-06T07:08:22.335Z,100.00
2022-10-06T07:10:27.982Z,100.00
2022-10-06T07:12:31.194Z,100.00
2022-10-06T07:14:34.848Z,100.00
2022-10-06T07:16:56.373Z,100.00
2022-10-06T07:19:20.196Z,100.00
2022-10-06T07:21:41.140Z,100.00
2022-10-06T07:24:01.562Z,100.00
2022-10-06T07:26:09.731Z,100.00
2022-10-06T07:28:13.054Z,100.00
2022-10-06T07:30:19.602Z,100.00
2022-10-06T07:32:27.854Z,100.00
2022-10-06T07:34:31.451Z,100.00
2022-10-06T07:36:34.919Z,100.00
2022-10-06T07:38:41.561Z,100.00
2022-10-06T07:41:14.509Z,100.00
2022-10-06T07:43:11.133Z,100.00
2022-10-06T07:45:39.457Z,100.00
2022-10-06T07:47:46.138Z,100.00
2022-10-06T07:49:52.254Z,100.00
2022-10-06T07:51:55.584Z,100.00
2022-10-06T07:53:58.633Z,100.00
2022-10-06T07:56:11.147Z,100.00
2022-10-06T08:01:34.772Z,100.00
2022-10-06T08:03:38.595Z,100.00
2022-10-06T08:05:41.816Z,100.00
2022-10-06T08:07:44.747Z,100.00
2022-10-06T08:09:48.792Z,100.00
2022-10-06T08:11:53.024Z,100.00
2022-10-06T08:13:56.170Z,100.00
2022-10-06T08:16:07.385Z,100.00
2022-10-06T08:18:27.240Z,100.00
2022-10-06T08:20:34.874Z,100.00
2022-10-06T08:22:40.005Z,100.00
2022-10-06T08:25:04.687Z,100.00
2022-10-06T08:27:07.099Z,100.00
2022-10-06T08:29:10.858Z,100.00
2022-10-06T08:31:15.687Z,100.00
2022-10-06T08:33:21.515Z,100.00
2022-10-06T08:35:24.935Z,100.00
2022-10-06T08:37:28.055Z,100.00
2022-10-06T08:39:31.605Z,100.00
2022-10-06T08:41:40.229Z,100.00
2022-10-06T08:43:44.011Z,100.00
2022-10-06T08:45:47.860Z,100.00
2022-10-06T08:47:57.221Z,100.00
2022-10-06T08:50:01.789Z,100.00
2022-10-06T08:52:11.381Z,100.00
2022-10-06T08:54:16.738Z,100.00
2022-10-06T08:56:22.721Z,100.00
2022-10-06T08:58:33.253Z,100.00
2022-10-06T09:00:38.504Z,100.00
2022-10-06T09:02:45.628Z,100.00
2022-10-06T09:04:51.100Z,100.00
2022-10-06T09:07:05.396Z,100.00
2022-10-06T09:09:25.309Z,100.00
2022-10-06T09:11:39.995Z,100.00
2022-10-06T09:13:45.385Z,100.00
2022-10-06T09:15:53.254Z,100.00
2022-10-06T09:17:58.421Z,100.00
2022-10-06T09:20:03.456Z,100.00
2022-10-06T09:22:14.786Z,100.00
2022-10-06T09:24:19.438Z,100.00
2022-10-06T09:26:24.187Z,100.00
2022-10-06T09:28:27.403Z,100.00
2022-10-06T09:30:30.504Z,100.00
2022-10-06T09:32:34.679Z,100.00
2022-10-06T09:34:41.512Z,100.00
2022-10-06T09:37:01.553Z,100.00
2022-10-06T09:39:26.987Z,100.00
2022-10-06T09:41:31.932Z,100.00
2022-10-06T09:43:35.081Z,100.00
2022-10-06T09:45:38.031Z,100.00
2022-10-06T09:47:45.116Z,100.00
2022-10-06T09:50:03.851Z,100.00
2022-10-06T09:52:12.804Z,100.00
2022-10-06T09:54:16.489Z,100.00
2022-10-06T09:56:21.368Z,100.00
2022-10-06T09:58:31.454Z,100.00
2022-10-06T10:00:36.004Z,100.00
2022-10-06T10:02:39.623Z,100.00
2022-10-06T10:04:42.720Z,100.00
2022-10-06T10:06:45.869Z,100.00
2022-10-06T10:08:48.997Z,100.00
2022-10-06T10:10:52.278Z,100.00
2022-10-06T10:12:57.925Z,100.00
2022-10-06T10:15:04.208Z,100.00
2022-10-06T10:17:10.437Z,100.00
2022-10-06T10:19:23.967Z,100.00
2022-10-06T10:21:30.749Z,95.82
2022-10-06T10:23:36.248Z,94.55
2022-10-06T10:26:00.467Z,96.95
2022-10-06T10:28:10.305Z,93.42
2022-10-06T10:30:15.010Z,89.21
2022-10-06T10:32:20.627Z,91.04
2022-10-06T10:34:47.814Z,84.06
2022-10-06T10:36:53.554Z,82.87
2022-10-06T10:38:56.484Z,84.45
2022-10-06T10:41:06.149Z,84.35
2022-10-06T10:43:18.504Z,82.64
2022-10-06T10:45:28.900Z,82.48
2022-10-06T10:47:35.378Z,81.80
2022-10-06T10:49:39.211Z,82.25
2022-10-06T10:51:46.311Z,75.78
2022-10-06T10:53:51.089Z,73.36
2022-10-06T10:55:54.578Z,79.44
2022-10-06T10:58:00.705Z,77.14
2022-10-06T11:00:08.318Z,74.54
2022-10-06T11:02:14.263Z,69.09
2022-10-06T11:04:17.205Z,69.12
2022-10-06T11:06:34.480Z,70.76
2022-10-06T11:08:43.045Z,67.80
2022-10-06T11:10:49.878Z,69.32
2022-10-06T11:13:03.267Z,69.62
2022-10-06T11:15:16.699Z,69.94
2022-10-06T11:17:29.701Z,66.67
2022-10-06T11:19:42.610Z,63.74
2022-10-06T11:21:55.124Z,61.78
2022-10-06T11:24:00.947Z,61.09
2022-10-06T11:26:15.270Z,58.95
2022-10-06T11:28:22.179Z,60.63
2022-10-06T11:30:26.766Z,61.27
2022-10-06T11:32:36.380Z,58.49
2022-10-06T11:34:42.168Z,59.16
2022-10-06T11:36:49.299Z,57.77
2022-10-06T11:39:18.399Z,57.60
2022-10-06T11:41:23.552Z,59.38
2022-10-06T11:43:34.458Z,57.05
2022-10-06T11:45:47.971Z,56.63
2022-10-06T11:48:06.732Z,54.62
2022-10-06T11:50:34.218Z,55.38
2022-10-06T11:52:47.477Z,54.17
2022-10-06T11:54:52.633Z,55.63
2022-10-06T11:56:58.103Z,51.62
2022-10-06T11:59:11.436Z,51.33
2022-10-06T12:01:52.567Z,51.02
2022-10-06T12:04:12.727Z,50.42
2022-10-06T12:06:53.690Z,47.47
2022-10-06T12:08:56.684Z,44.83
2022-10-06T12:10:59.654Z,44.13
2022-10-06T12:13:50.453Z,44.86
2022-10-06T12:18:45.342Z,45.11
2022-10-06T12:20:56.847Z,46.04
2022-10-06T12:23:02.824Z,44.40
2022-10-06T12:25:11.387Z,43.55
2022-10-06T12:27:30.491Z,45.93
2022-10-06T12:29:43.433Z,44.44
2022-10-06T12:31:51.231Z,44.32
2022-10-06T12:33:55.652Z,43.44
2022-10-06T12:36:05.374Z,43.17
2022-10-06T12:38:43.154Z,44.71
2022-10-06T12:40:49.153Z,44.34
2022-10-06T12:42:54.271Z,44.16
2022-10-06T12:44:57.559Z,42.86
2022-10-06T12:47:04.095Z,40.13
2022-10-06T12:49:34.506Z,40.96
2022-10-06T12:51:39.659Z,40.46
2022-10-06T12:53:49.733Z,40.59
2022-10-06T12:55:53.823Z,41.07
2022-10-06T12:57:56.719Z,40.89
2022-10-06T13:00:00.500Z,42.79
2022-10-06T13:02:09.355Z,41.67
2022-10-06T13:04:32.534Z,41.75
2022-10-06T13:06:35.543Z,42.08
2022-10-06T13:08:40.034Z,43.23
2022-10-06T13:10:45.342Z,41.67
2022-10-06T13:12:51.636Z,42.99
2022-10-06T13:15:17.717Z,43.08
2022-10-06T13:17:21.485Z,44.68
2022-10-06T13:19:28.191Z,44.21
2022-10-06T13:21:32.558Z,44.40
2022-10-06T13:23:36.142Z,43.47
2022-10-06T13:25:43.889Z,43.83
2022-10-06T13:27:51.296Z,44.82
2022-10-06T13:30:12.929Z,44.00
2022-10-06T13:32:19.064Z,41.77
2022-10-06T13:34:30.383Z,42.77
2022-10-06T13:36:37.185Z,41.06
2022-10-06T13:38:41.266Z,42.03
2022-10-06T13:40:45.505Z,42.54
2022-10-06T13:42:48.955Z,42.14
2022-10-06T13:44:56.944Z,42.67
2022-10-06T13:47:01.965Z,44.14
2022-10-06T13:49:15.171Z,43.63
2022-10-06T13:51:19.803Z,43.55
2022-10-06T13:53:31.132Z,44.02
2022-10-06T13:55:34.039Z,43.98
2022-10-06T13:57:39.430Z,44.06
2022-10-06T13:59:42.785Z,45.19
2022-10-06T14:01:45.729Z,43.96
2022-10-06T14:03:48.696Z,43.94
2022-10-06T14:05:52.959Z,43.60
2022-10-06T14:07:58.199Z,43.76
2022-10-06T14:10:02.710Z,44.23
2022-10-06T14:12:07.799Z,43.57
2022-10-06T14:14:16.425Z,43.05
2022-10-06T14:16:21.315Z,43.64
2022-10-06T14:18:26.167Z,43.55
2022-10-06T14:20:45.902Z,43.34
2022-10-06T14:22:48.860Z,42.47
2022-10-06T14:24:54.527Z,43.42
2022-10-06T14:27:03.954Z,44.63
2022-10-06T14:29:06.926Z,45.56
2022-10-06T14:31:14.466Z,46.71
2022-10-06T14:33:19.092Z,47.52
2022-10-06T14:35:22.070Z,46.16
2022-10-06T14:37:25.093Z,46.14
2022-10-06T14:39:28.560Z,46.52
2022-10-06T14:41:31.690Z,46.74
2022-10-06T14:43:36.262Z,47.66
2022-10-06T14:45:41.831Z,49.27
2022-10-06T14:47:46.357Z,49.16
2022-10-06T14:49:49.622Z,47.04
2022-10-06T14:51:53.829Z,46.99
2022-10-06T14:53:58.419Z,46.33
2022-10-06T14:56:05.413Z,46.39
2022-10-06T14:58:08.519Z,47.29
2022-10-06T15:00:14.623Z,48.24
2022-10-06T15:02:20.353Z,48.90
2022-10-06T15:04:26.429Z,49.59
2022-10-06T15:06:47.189Z,49.72
2022-10-06T15:08:51.741Z,50.32
2022-10-06T15:10:54.747Z,50.61
2022-10-06T15:12:58.739Z,49.86
2022-10-06T15:15:01.721Z,50.96
2022-10-06T15:17:06.412Z,50.13
2022-10-06T15:19:11.981Z,50.89
2022-10-06T15:21:14.934Z,51.31
2022-10-06T15:23:18.004Z,51.07
2022-10-06T15:25:38.455Z,52.29
2022-10-06T15:27:59.227Z,53.27
2022-10-06T15:30:02.227Z,55.09
2022-10-06T15:32:07.336Z,56.44
2022-10-06T15:34:12.185Z,57.28
2022-10-06T15:36:19.994Z,58.17
2022-10-06T15:38:22.905Z,59.54
2022-10-06T15:40:27.065Z,61.55
2022-10-06T15:42:30.159Z,63.66
2022-10-06T15:44:34.618Z,65.29
2022-10-06T15:46:39.852Z,66.47
2022-10-06T15:48:44.925Z,67.93
2022-10-06T15:50:47.851Z,69.13
2022-10-06T15:52:50.827Z,69.20
2022-10-06T15:54:53.742Z,70.79
2022-10-06T15:56:57.688Z,72.46
2022-10-06T15:59:00.725Z,74.27
2022-10-06T16:01:07.000Z,74.83
2022-10-06T16:03:24.837Z,76.00
2022-10-06T16:05:47.985Z,78.57
2022-10-06T16:07:50.967Z,79.60
2022-10-06T16:09:53.897Z,82.57
2022-10-06T16:11:57.702Z,83.16
2022-10-06T16:14:00.606Z,83.56
2022-10-06T16:16:05.913Z,84.02
2022-10-06T16:18:08.890Z,83.82
2022-10-06T16:20:11.935Z,85.49
2022-10-06T16:22:17.982Z,87.36
2022-10-06T16:24:21.970Z,88.24
2022-10-06T16:26:26.467Z,89.14
2022-10-06T16:28:29.551Z,90.71
2022-10-06T16:30:32.524Z,93.64
2022-10-06T16:32:36.070Z,93.49
2022-10-06T16:34:39.154Z,95.71
2022-10-06T16:36:42.693Z,96.54
2022-10-06T16:38:50.555Z,98.11
2022-10-06T16:40:57.339Z,100.00
2022-10-06T16:43:00.218Z,100.00
2022-10-06T16:45:03.136Z,100.00
2022-10-06T16:47:06.132Z,100.00
2022-10-06T16:49:09.905Z,100.00
2022-10-06T16:51:14.664Z,100.00
2022-10-06T16:53:18.764Z,100.00
2022-10-06T16:55:23.397Z,100.00
2022-10-06T16:57:26.310Z,100.00
2022-10-06T16:59:30.482Z,100.00
2022-10-06T17:01:34.955Z,100.00
2022-10-06T17:03:38.300Z,100.00
2022-10-06T17:05:41.366Z,100.00
2022-10-06T17:07:44.295Z,100.00
2022-10-06T17:10:08.492Z,100.00
2022-10-06T17:12:11.875Z,100.00
2022-10-06T17:14:15.091Z,100.00
2022-10-06T17:16:19.845Z,100.00
2022-10-06T17:18:22.821Z,100.00
2022-10-06T17:20:25.936Z,100.00
2022-10-06T17:22:28.993Z,100.00
2022-10-06T17:24:32.071Z,100.00
2022-10-06T17:26:36.707Z,100.00
2022-10-06T17:28:42.173Z,100.00
2022-10-06T17:30:52.943Z,100.00
2022-10-06T17:32:56.180Z,100.00
2022-10-06T17:34:59.163Z,100.00
2022-10-06T17:37:02.858Z,100.00
2022-10-06T17:39:08.292Z,100.00
2022-10-06T17:41:13.241Z,100.00
2022-10-06T17:43:19.391Z,100.00
2022-10-06T17:45:25.921Z,100.00
2022-10-06T17:47:29.592Z,100.00
2022-10-06T17:49:34.800Z,100.00
2022-10-06T17:51:40.539Z,100.00
2022-10-06T17:53:44.502Z,100.00
2022-10-06T17:55:48.021Z,100.00
2022-10-06T17:57:52.092Z,100.00
2022-10-06T17:59:55.411Z,100.00
2022-10-06T18:02:02.491Z,100.00
2022-10-06T18:04:08.113Z,100.00
2022-10-06T18:06:12.312Z,100.00
2022-10-06T18:08:15.228Z,100.00
2022-10-06T18:10:35.805Z,100.00
2022-10-06T18:12:39.337Z,100.00
2022-10-06T18:14:43.322Z,100.00
2022-10-06T18:16:49.942Z,100.00
2022-10-06T18:19:01.418Z,100.00
2022-10-06T18:21:07.612Z,100.00
2022-10-06T18:23:12.985Z,100.00
2022-10-06T18:25:16.889Z,100.00
2022-10-06T18:27:20.182Z,100.00
2022-10-06T18:29:25.017Z,100.00
2022-10-06T18:31:28.000Z,100.00
2022-10-06T18:36:14.839Z,100.00
2022-10-06T18:38:18.142Z,100.00
2022-10-06T18:40:21.217Z,100.00
2022-10-06T18:42:24.185Z,100.00
2022-10-06T18:44:40.994Z,100.00
2022-10-06T18:47:01.618Z,100.00
2022-10-06T18:49:10.511Z,100.00
2022-10-06T18:51:18.787Z,100.00
2022-10-06T18:53:21.726Z,100.00
2022-10-06T18:55:26.448Z,100.00
2022-10-06T18:57:29.582Z,100.00
2022-10-06T18:59:32.836Z,100.00
2022-10-06T19:01:39.813Z,100.00
2022-10-06T19:03:42.953Z,100.00
2022-10-06T19:05:52.882Z,100.00
2022-10-06T19:07:57.218Z,100.00
2022-10-06T19:10:00.157Z,100.00
2022-10-06T19:12:03.169Z,100.00
2022-10-06T19:14:06.424Z,100.00
2022-10-06T19:16:09.518Z,100.00
2022-10-06T19:18:12.443Z,100.00
2022-10-06T19:20:16.814Z,100.00
2022-10-06T19:22:24.591Z,100.00
2022-10-06T19:24:31.722Z,100.00
2022-10-06T19:26:41.294Z,100.00
2022-10-06T19:28:47.058Z,100.00
2022-10-06T19:31:00.443Z,100.00
2022-10-06T19:33:04.851Z,100.00
2022-10-06T19:35:10.548Z,100.00
2022-10-06T19:37:13.728Z,100.00
2022-10-06T19:39:22.070Z,100.00
2022-10-06T19:41:43.638Z,100.00
2022-10-06T19:43:50.671Z,100.00
2022-10-06T19:45:57.681Z,100.00
2022-10-06T19:48:00.740Z,100.00
2022-10-06T19:50:10.346Z,100.00
2022-10-06T19:52:15.083Z,100.00
2022-10-06T19:54:19.408Z,100.00
2022-10-06T19:56:25.238Z,100.00
2022-10-06T19:58:29.796Z,100.00
2022-10-06T20:00:33.472Z,100.00
2022-10-06T20:02:41.991Z,100.00
2022-10-06T20:04:45.777Z,100.00
2022-10-06T20:06:48.819Z,100.00
2022-10-06T20:08:52.918Z,100.00
2022-10-06T20:11:05.483Z,100.00
2022-10-06T20:13:09.759Z,100.00
2022-10-06T20:15:14.386Z,100.00
2022-10-06T20:17:17.534Z,100.00
2022-10-06T20:19:22.182Z,100.00
2022-10-06T20:21:30.148Z,100.00
2022-10-06T20:23:33.732Z,100.00
2022-10-06T20:25:36.652Z,100.00
2022-10-06T20:27:39.622Z,100.00
2022-10-06T20:29:42.862Z,100.00
2022-10-06T20:31:48.831Z,100.00
2022-10-06T20:33:51.802Z,100.00
2022-10-06T20:35:54.747Z,100.00
2022-10-06T20:37:57.678Z,100.00
2022-10-06T20:40:18.130Z,100.00
2022-10-06T20:42:22.567Z,100.00
2022-10-06T20:44:26.200Z,100.00
2022-10-06T20:46:33.486Z,100.00
2022-10-06T20:48:39.081Z,100.00
2022-10-06T20:50:42.381Z,100.00
2022-10-06T20:52:47.094Z,100.00
2022-10-06T20:54:50.784Z,100.00
2022-10-06T20:56:55.597Z,100.00
2022-10-06T20:58:59.732Z,100.00
2022-10-06T21:01:10.850Z,100.00
2022-10-06T21:03:14.069Z,100.00
2022-10-06T21:05:18.941Z,100.00
2022-10-06T21:07:21.869Z,100.00
2022-10-06T21:09:25.291Z,100.00
2022-10-06T21:11:28.699Z,100.00
2022-10-06T21:13:32.379Z,100.00
2022-10-06T21:15:35.407Z,100.00
2022-10-06T21:17:39.397Z,100.00
2022-10-06T21:19:42.818Z,100.00
2022-10-06T21:21:50.602Z,100.00
2022-10-06T21:23:53.685Z,100.00
2022-10-06T21:25:56.943Z,100.00
2022-10-06T21:27:59.972Z,100.00
2022-10-06T21:30:04.985Z,100.00
2022-10-06T21:32:10.208Z,100.00
2022-10-06T21:34:14.241Z,100.00
2022-10-06T21:36:19.205Z,100.00
2022-10-06T21:38:23.939Z,100.00
2022-10-06T21:40:27.314Z,100.00
2022-10-06T21:42:30.277Z,100.00
2022-10-06T21:44:33.296Z,100.00
2022-10-06T21:46:38.021Z,100.00
2022-10-06T21:48:40.969Z,100.00
2022-10-06T21:50:43.878Z,100.00
2022-10-06T21:52:46.908Z,100.00
2022-10-06T21:54:51.319Z,100.00
2022-10-06T21:56:54.659Z,100.00
2022-10-06T21:58:58.007Z,100.00
2022-10-06T22:01:03.105Z,100.00
2022-10-06T22:03:09.301Z,100.00
2022-10-06T22:05:12.269Z,100.00
2022-10-06T22:07:15.339Z,100.00
2022-10-06T22:09:19.917Z,100.00
2022-10-06T22:11:29.226Z,100.00
2022-10-06T22:13:32.212Z,100.00
2022-10-06T22:15:36.957Z,100.00
2022-10-06T22:17:40.151Z,100.00
2022-10-06T22:19:43.149Z,100.00
2022-10-06T22:21:47.738Z,100.00
2022-10-06T22:23:56.210Z,100.00
2022-10-06T22:25:59.625Z,100.00
2022-10-06T22:28:03.970Z,100.00
2022-10-06T22:30:08.312Z,100.00
2022-10-06T22:32:11.302Z,100.00
2022-10-06T22:34:16.160Z,100.00
2022-10-06T22:36:19.309Z,100.00
2022-10-06T22:38:22.194Z,100.00
2022-10-06T22:40:25.334Z,100.00
2022-10-06T22:42:28.254Z,100.00
2022-10-06T22:44:32.569Z,100.00
2022-10-06T22:46:37.265Z,100.00
2022-10-06T22:48:40.444Z,100.00
2022-10-06T22:50:43.352Z,100.00
2022-10-06T22:52:46.366Z,100.00
2022-10-06T22:54:51.510Z,100.00
2022-10-06T22:56:54.561Z,100.00
2022-10-06T22:58:59.601Z,100.00
2022-10-06T23:01:11.604Z,100.00
2022-10-06T23:03:14.652Z,100.00
2022-10-06T23:05:17.717Z,100.00
2022-10-06T23:07:20.736Z,100.00
2022-10-06T23:09:24.027Z,100.00
2022-10-06T23:11:27.184Z,100.00
2022-10-06T23:13:31.395Z,100.00
2022-10-06T23:15:34.387Z,100.00
2022-10-06T23:17:39.538Z,100.00
2022-10-06T23:19:42.555Z,100.00
2022-10-06T23:21:45.424Z,100.00
2022-10-06T23:23:48.964Z,100.00
2022-10-06T23:25:52.069Z,100.00
2022-10-06T23:27:55.009Z,100.00
2022-10-06T23:29:57.917Z,100.00
2022-10-06T23:32:00.870Z,100.00
2022-10-06T23:34:05.162Z,100.00
2022-10-06T23:36:11.850Z,100.00
2022-10-06T23:38:14.937Z,100.00
2022-10-06T23:40:18.066Z,100.00
2022-10-06T23:42:21.285Z,100.00
2022-10-06T23:44:24.425Z,100.00
2022-10-06T23:46:27.435Z,100.00
2022-10-06T23:48:30.562Z,100.00
2022-10-06T23:50:35.085Z,100.00
2022-10-06T23:52:38.585Z,100.00
2022-10-06T23:54:41.562Z,100.00
2022-10-06T23:56:44.535Z,100.00
2022-10-06T23:58:47.949Z,100.00
